NCAR-RAP Real-Time Weather Data

Output produced by METARs form (12 May 2021  11:51 UTC)
found at http://weather.rap.ucar.edu/surface/
 
KILM 121053Z 03010KT 10SM OVC060 16/14 A3012 RMK AO2 RAB01E26 SLP197 P0000 T01610139
KILM 120953Z 06003KT 10SM OVC060 17/14 A3008 RMK AO2 SLP187 T01670139
KILM 120853Z 03006KT 10SM BKN060 BKN080 16/14 A3008 RMK AO2 SLP184 T01610144 58008
KILM 120753Z 04003KT 10SM OVC110 16/14 A3009 RMK AO2 SLP187 T01610139
KILM 120653Z 00000KT 10SM FEW070 BKN120 17/13 A3010 RMK AO2 SLP192 T01670133
KILM 120553Z 00000KT 10SM CLR 16/13 A3010 RMK AO2 SLP193 T01610133 10200 20161 58002
KILM 120453Z 00000KT 10SM CLR 16/13 A3013 RMK AO2 SLP201 T01610133 402280161
KILM 120353Z 03004KT 10SM CLR 16/13 A3012 RMK AO2 SLP200 T01610133
KILM 120253Z 00000KT 10SM CLR 17/13 A3011 RMK AO2 SLP195 T01720128 51008
KILM 120153Z 07004KT 10SM CLR 18/13 A3011 RMK AO2 SLP194 T01780133
KILM 120106Z 02005KT 10SM SCT028 BKN120 19/14 A3011 RMK AO2 T01890139
KILM 120053Z AUTO 05004KT 10SM BKN029 19/14 A3010 RMK AO2 SLP192 T01890139
KILM 112353Z AUTO 06004KT 10SM OVC027 20/14 A3009 RMK AO2 SLP187 T02000139 10228 20200 53005
KILM 112302Z AUTO 08005KT 8SM BKN028 OVC032 21/14 A3006 RMK AO2 T02060144
KILM 112253Z AUTO VRB05KT 10SM OVC030 21/14 A3006 RMK AO2 SLP179 T02060144
KILM 112227Z AUTO 05006KT 10SM BKN028 21/14 A3006 RMK AO2 T02110144
KILM 112153Z AUTO 01007KT 10SM CLR 22/14 A3006 RMK AO2 SLP180 T02220144
KILM 112053Z AUTO VRB05KT 10SM SCT025 BKN043 22/15 A3007 RMK AO2 SLP182 T02220150 56008
KILM 111953Z 05005KT 10SM OVC026 21/14 A3008 RMK AO2 SLP185 T02110144